Time;durP1;ratioP1;P1;durP2;ratioP2;P2;SDS_P1;SDS_P2;PMS_P1;PMS_P2;Temp;Humidity;BMP_temperature;BMP_pressure;BME280_temperature;BME280_humidity;BME280_pressure;Samples;Min_cycle;Max_cycle;Signal;HPM_P1;HPM_P2
2022/12/27 00:02:36;;;;;;;10.82;2.87;;;3.80;99.90;;;;;;7279890;32;20529;-59
2022/12/27 00:06:38;;;;;;;9.18;1.92;;;3.80;99.90;;;;;;7280919;32;20132;-59
2022/12/27 00:10:40;;;;;;;4.85;1.73;;;3.80;99.90;;;;;;7282601;32;20194;-59
2022/12/27 00:14:42;;;;;;;10.63;1.92;;;3.80;99.90;;;;;;7277169;32;20220;-59
2022/12/27 00:18:45;;;;;;;10.18;1.85;;;3.80;99.90;;;;;;7293923;32;20096;-59
2022/12/27 00:22:47;;;;;;;9.68;2.05;;;3.80;99.90;;;;;;7300905;32;20172;-59
2022/12/27 00:26:48;;;;;;;7.43;1.92;;;3.90;99.90;;;;;;7299985;32;20122;-59
2022/12/27 00:30:54;;;;;;;7.95;2.08;;;3.80;99.90;;;;;;7299561;32;20802;-59
2022/12/27 00:34:56;;;;;;;11.68;1.65;;;3.70;99.90;;;;;;7284053;32;20158;-58
2022/12/27 00:38:59;;;;;;;10.85;1.77;;;3.70;99.90;;;;;;7286528;32;20100;-62
2022/12/27 00:43:00;;;;;;;10.85;1.80;;;3.60;99.90;;;;;;7298619;32;20194;-59
2022/12/27 00:47:02;;;;;;;7.75;1.95;;;3.70;99.90;;;;;;7301004;32;20684;-59
2022/12/27 00:51:07;;;;;;;7.75;1.92;;;3.70;99.90;;;;;;7286251;32;20107;-59
2022/12/27 00:55:10;;;;;;;11.75;1.98;;;3.60;99.90;;;;;;7288096;32;20103;-60
2022/12/27 00:59:12;;;;;;;5.62;1.75;;;3.70;99.90;;;;;;7284273;32;20121;-59
2022/12/27 01:03:14;;;;;;;6.82;2.03;;;3.80;99.90;;;;;;7285708;32;20124;-59
2022/12/27 01:07:15;;;;;;;4.60;1.55;;;3.80;99.90;;;;;;7297824;32;20259;-60
2022/12/27 01:11:18;;;;;;;4.20;1.65;;;3.70;99.90;;;;;;7287667;32;20134;-60
2022/12/27 01:15:19;;;;;;;8.30;1.92;;;3.70;99.90;;;;;;7283753;32;20435;-60
2022/12/27 01:19:21;;;;;;;8.07;2.30;;;3.70;99.90;;;;;;7285187;32;20616;-59
2022/12/27 01:23:24;;;;;;;7.72;1.40;;;3.70;99.90;;;;;;7282830;32;20134;-59
2022/12/27 01:27:27;;;;;;;7.00;1.50;;;3.70;99.90;;;;;;7300551;32;20149;-59
2022/12/27 01:31:28;;;;;;;12.37;2.47;;;3.80;99.90;;;;;;7284051;32;20220;-60
2022/12/27 01:35:30;;;;;;;4.47;1.65;;;3.80;99.90;;;;;;7281382;32;20278;-59
2022/12/27 01:39:32;;;;;;;8.98;1.70;;;3.80;99.90;;;;;;7294863;32;20269;-59
2022/12/27 01:43:37;;;;;;;5.37;1.75;;;3.80;99.90;;;;;;7286663;32;20698;-59
2022/12/27 01:47:48;;;;;;;9.60;1.50;;;3.70;99.90;;;;;;7282327;32;20169;-59
2022/12/27 01:51:49;;;;;;;6.12;1.83;;;3.80;99.90;;;;;;7291429;32;20438;-59
2022/12/27 01:56:00;;;;;;;11.75;2.12;;;3.80;99.90;;;;;;7282345;32;20097;-59
2022/12/27 02:00:03;;;;;;;7.47;1.77;;;3.80;99.90;;;;;;7271725;32;20127;-58
2022/12/27 02:04:27;;;;;;;5.50;1.40;;;3.80;99.90;;;;;;7283912;32;20104;-59
2022/12/27 02:08:55;;;;;;;11.25;1.80;;;3.80;99.90;;;;;;7284296;32;20197;-58
2022/12/27 02:12:58;;;;;;;6.82;1.70;;;3.90;99.90;;;;;;7298082;32;20153;-58
2022/12/27 02:17:20;;;;;;;13.15;2.03;;;3.80;99.90;;;;;;7295811;32;20239;-58
2022/12/27 02:21:28;;;;;;;7.35;1.50;;;3.80;99.90;;;;;;7283723;32;20197;-58
2022/12/27 02:25:41;;;;;;;6.75;1.58;;;3.80;99.90;;;;;;7277941;32;20508;-58
2022/12/27 02:30:07;;;;;;;11.45;1.73;;;3.80;99.90;;;;;;7297550;32;20112;-59
2022/12/27 02:34:19;;;;;;;8.90;1.80;;;3.80;99.90;;;;;;7296032;32;20161;-60
2022/12/27 02:38:29;;;;;;;11.88;2.08;;;3.80;99.90;;;;;;7296169;32;20108;-59
2022/12/27 03:33:12;;;;;;;8.57;1.58;;;3.90;99.90;;;;;;7282842;32;20234;-59
2022/12/27 03:46:34;;;;;;;7.93;1.80;;;4.00;99.90;;;;;;7277208;32;20116;-59
2022/12/27 03:51:09;;;;;;;6.50;1.30;;;4.00;99.90;;;;;;7280069;32;20434;-60
2022/12/27 03:55:11;;;;;;;10.35;1.65;;;3.90;99.90;;;;;;7251185;32;20375;-59
2022/12/27 03:59:13;;;;;;;7.00;1.20;;;3.90;99.90;;;;;;7287829;32;20133;-59
2022/12/27 04:03:15;;;;;;;6.07;1.67;;;4.00;99.90;;;;;;7275409;32;20111;-59
2022/12/27 04:07:16;;;;;;;8.68;1.60;;;4.00;99.90;;;;;;7288313;32;20108;-59
2022/12/27 04:37:20;;;;;;;10.23;1.77;;;4.20;99.90;;;;;;7287139;32;20537;-59
2022/12/27 05:03:19;;;;;;;6.20;1.58;;;4.60;99.90;;;;;;7296544;32;20207;-60
2022/12/27 05:13:58;;;;;;;5.75;1.42;;;4.60;99.90;;;;;;7288886;32;20673;-60
2022/12/27 05:16:21;;;;;;;8.55;1.50;;;4.60;99.90;;;;;;7285625;32;20107;-59
2022/12/27 05:20:23;;;;;;;9.32;1.50;;;4.70;99.90;;;;;;7298194;32;20165;-59
2022/12/27 05:28:46;;;;;;;9.45;1.60;;;4.80;99.90;;;;;;7297628;32;20169;-60
2022/12/27 05:32:48;;;;;;;8.40;1.77;;;4.80;99.90;;;;;;7280794;32;20134;-60
2022/12/27 05:36:49;;;;;;;14.20;2.00;;;4.90;99.90;;;;;;7285239;32;20190;-61
2022/12/27 05:40:59;;;;;;;11.20;2.17;;;4.90;99.90;;;;;;7298090;32;20111;-61
2022/12/27 05:45:01;;;;;;;9.40;1.73;;;4.80;99.90;;;;;;7286483;32;20191;-61
2022/12/27 05:49:03;;;;;;;6.95;1.85;;;4.70;99.90;;;;;;7297573;32;20673;-60
2022/12/27 05:53:04;;;;;;;10.38;1.83;;;4.70;99.90;;;;;;7282923;32;20100;-58
2022/12/27 05:57:06;;;;;;;8.05;2.17;;;4.60;99.90;;;;;;7295859;32;20152;-58
2022/12/27 06:01:10;;;;;;;11.93;2.00;;;4.60;99.90;;;;;;7295711;32;20184;-58
2022/12/27 06:05:12;;;;;;;10.35;1.50;;;4.40;99.90;;;;;;7278127;32;20405;-58
2022/12/27 06:09:14;;;;;;;8.82;1.85;;;4.40;99.90;;;;;;7265395;32;20122;-58
2022/12/27 06:13:16;;;;;;;10.75;1.95;;;4.30;99.90;;;;;;7295216;32;20560;-58
2022/12/27 06:17:17;;;;;;;7.03;1.67;;;4.30;99.90;;;;;;7283510;32;20474;-58
2022/12/27 06:21:20;;;;;;;11.05;2.28;;;4.30;99.90;;;;;;7297837;32;20250;-60
2022/12/27 06:25:22;;;;;;;7.97;2.85;;;4.30;99.90;;;;;;7285575;32;20567;-60
2022/12/27 06:29:24;;;;;;;11.95;2.17;;;4.40;99.90;;;;;;7283152;32;20735;-62
2022/12/27 06:33:26;;;;;;;7.22;2.00;;;4.20;99.90;;;;;;7271315;32;20171;-60
2022/12/27 06:37:29;;;;;;;10.45;2.25;;;4.20;99.90;;;;;;7283656;32;20134;-61
2022/12/27 06:41:31;;;;;;;8.80;1.95;;;4.10;99.90;;;;;;7296937;32;20165;-58
2022/12/27 06:45:33;;;;;;;9.82;1.92;;;4.00;99.90;;;;;;7296665;32;20192;-58
2022/12/27 06:49:35;;;;;;;11.48;2.37;;;4.00;99.90;;;;;;7290230;32;20112;-58
2022/12/27 06:53:36;;;;;;;9.15;2.40;;;4.00;99.90;;;;;;7293068;32;20492;-59
2022/12/27 06:57:38;;;;;;;10.60;2.35;;;4.00;99.90;;;;;;7295882;32;20127;-58
2022/12/27 07:01:40;;;;;;;11.68;2.50;;;3.90;99.90;;;;;;7292378;32;20486;-58
2022/12/27 07:05:42;;;;;;;10.25;2.40;;;4.00;99.90;;;;;;7288745;32;20215;-58
2022/12/27 07:09:44;;;;;;;9.93;2.53;;;4.00;99.90;;;;;;7289496;32;20776;-58
2022/12/27 07:13:48;;;;;;;7.68;2.47;;;3.90;99.90;;;;;;7297940;32;20243;-59
2022/12/27 07:17:49;;;;;;;10.05;1.90;;;3.90;99.90;;;;;;7292225;32;20112;-59
2022/12/27 07:21:51;;;;;;;10.27;2.03;;;3.90;99.90;;;;;;7273374;32;20501;-59
2022/12/27 07:25:53;;;;;;;11.10;2.40;;;3.90;99.90;;;;;;7296759;32;20115;-59
2022/12/27 07:29:55;;;;;;;9.80;2.50;;;3.90;99.90;;;;;;7279310;32;20112;-58
2022/12/27 07:33:58;;;;;;;11.80;2.60;;;3.90;99.90;;;;;;7263831;32;20820;-59
2022/12/27 07:38:00;;;;;;;9.45;2.45;;;3.90;99.90;;;;;;7291774;32;20123;-59
2022/12/27 07:42:02;;;;;;;6.45;2.28;;;3.90;99.90;;;;;;7292604;32;20361;-61
2022/12/27 07:46:13;;;;;;;10.48;1.87;;;3.90;99.90;;;;;;7287249;32;20187;-62
2022/12/27 07:50:15;;;;;;;9.13;2.30;;;4.00;99.90;;;;;;7289259;32;20231;-62
2022/12/27 07:54:16;;;;;;;12.32;2.08;;;4.00;99.90;;;;;;7290184;32;20135;-62
2022/12/27 07:58:19;;;;;;;10.18;2.30;;;3.90;99.90;;;;;;7293193;32;20469;-61
2022/12/27 08:02:21;;;;;;;8.27;2.12;;;3.90;99.90;;;;;;7293974;32;20640;-61
2022/12/27 08:06:30;;;;;;;9.75;2.00;;;3.90;99.90;;;;;;7293284;32;20154;-62
2022/12/27 08:10:32;;;;;;;16.10;2.00;;;3.90;99.90;;;;;;7290726;32;20104;-62
2022/12/27 08:14:34;;;;;;;6.18;2.10;;;4.00;99.90;;;;;;7295509;32;20499;-61
2022/12/27 08:18:36;;;;;;;12.30;2.62;;;4.00;99.90;;;;;;7294774;32;20525;-62
2022/12/27 08:22:38;;;;;;;11.80;2.33;;;4.00;99.90;;;;;;7293623;32;20395;-62
2022/12/27 08:26:39;;;;;;;9.15;2.20;;;4.10;99.90;;;;;;7293115;32;20207;-62
2022/12/27 08:30:42;;;;;;;10.57;3.08;;;4.10;99.90;;;;;;7291481;32;20096;-62
2022/12/27 08:34:44;;;;;;;6.72;1.92;;;4.10;99.90;;;;;;7293039;32;20218;-62
2022/12/27 08:38:46;;;;;;;10.32;2.53;;;4.10;99.90;;;;;;7291198;32;20131;-61
2022/12/27 08:42:47;;;;;;;10.40;2.17;;;4.20;99.90;;;;;;7294640;32;20116;-61
2022/12/27 08:46:49;;;;;;;5.50;1.85;;;4.20;99.90;;;;;;7290364;32;20116;-61
2022/12/27 08:50:51;;;;;;;9.50;3.35;;;4.30;99.90;;;;;;7286296;32;20108;-63
2022/12/27 08:54:53;;;;;;;9.93;1.95;;;4.30;99.90;;;;;;7298582;32;20210;-63
2022/12/27 08:58:54;;;;;;;10.38;2.17;;;4.30;99.90;;;;;;7294670;32;20112;-61
2022/12/27 09:02:56;;;;;;;13.13;1.75;;;4.50;99.90;;;;;;7296806;32;20111;-61
2022/12/27 09:06:58;;;;;;;9.48;2.90;;;4.50;99.90;;;;;;7296431;32;20131;-63
2022/12/27 09:11:16;;;;;;;9.00;2.15;;;4.60;99.90;;;;;;7298269;32;20120;-62
2022/12/27 09:15:18;;;;;;;10.25;2.00;;;4.80;99.90;;;;;;7297089;32;20135;-63
2022/12/27 09:19:19;;;;;;;9.25;2.05;;;5.10;99.90;;;;;;7297742;32;20127;-62
2022/12/27 09:23:21;;;;;;;15.60;1.80;;;5.20;99.90;;;;;;7294126;32;20137;-63
2022/12/27 09:27:23;;;;;;;8.35;2.10;;;5.30;99.90;;;;;;7300745;32;20108;-63
2022/12/27 09:31:25;;;;;;;9.15;1.83;;;5.40;99.90;;;;;;7301509;32;20157;-63
2022/12/27 09:35:27;;;;;;;7.30;1.50;;;5.60;99.90;;;;;;7300267;32;20130;-63
2022/12/27 09:39:29;;;;;;;9.18;2.17;;;5.80;99.90;;;;;;7292595;32;20293;-62
2022/12/27 09:43:52;;;;;;;12.05;2.12;;;5.80;99.90;;;;;;7286175;32;20104;-62
2022/12/27 09:47:59;;;;;;;8.38;2.25;;;5.80;99.90;;;;;;7293604;32;20096;-61
2022/12/27 09:52:30;;;;;;;4.60;1.55;;;5.80;99.90;;;;;;7290725;32;20691;-62
2022/12/27 09:56:34;;;;;;;4.78;1.80;;;5.80;99.90;;;;;;7291496;32;20293;-62
2022/12/27 10:00:56;;;;;;;10.00;2.15;;;5.80;99.90;;;;;;7294384;32;20704;-61
2022/12/27 10:04:58;;;;;;;8.82;1.90;;;5.80;99.90;;;;;;7295173;32;20162;-61
2022/12/27 10:09:45;;;;;;;8.30;1.77;;;5.90;99.90;;;;;;7290542;32;20096;-61
2022/12/27 10:13:57;;;;;;;10.60;2.30;;;5.90;99.90;;;;;;7293237;32;20211;-61
2022/12/27 10:18:28;;;;;;;10.50;2.40;;;6.00;99.90;;;;;;7296572;32;20209;-62
2022/12/27 10:22:44;;;;;;;9.13;2.00;;;6.00;99.90;;;;;;7291938;32;20624;-63
2022/12/27 10:26:46;;;;;;;8.43;2.55;;;6.00;99.90;;;;;;7296219;32;20105;-62
2022/12/27 10:30:48;;;;;;;10.13;2.10;;;6.00;99.90;;;;;;7297012;32;20116;-62
2022/12/27 10:35:00;;;;;;;8.52;2.08;;;6.10;99.90;;;;;;7295280;32;20190;-62
2022/12/27 10:39:04;;;;;;;8.70;1.75;;;6.20;99.90;;;;;;7281523;32;20128;-64
2022/12/27 10:43:25;;;;;;;7.10;1.73;;;6.30;99.90;;;;;;7292437;32;20115;-63
2022/12/27 10:47:27;;;;;;;9.93;2.30;;;6.40;99.90;;;;;;7293859;32;20221;-62
2022/12/27 10:51:40;;;;;;;11.35;2.53;;;6.40;99.90;;;;;;7278431;32;20177;-63
2022/12/27 10:55:41;;;;;;;7.55;2.05;;;6.50;99.90;;;;;;7280048;32;21304;-59
2022/12/27 10:59:43;;;;;;;8.60;2.17;;;6.60;99.90;;;;;;7294094;32;20314;-62
2022/12/27 11:03:45;;;;;;;6.65;1.75;;;6.70;99.90;;;;;;7264412;32;20127;-62
2022/12/27 11:07:47;;;;;;;7.87;1.80;;;6.70;99.90;;;;;;7292580;32;20196;-63
2022/12/27 11:11:48;;;;;;;9.52;2.40;;;6.70;99.90;;;;;;7290113;32;20202;-62
2022/12/27 11:15:55;;;;;;;7.12;2.00;;;6.80;99.90;;;;;;7295327;32;20141;-62
2022/12/27 11:20:24;;;;;;;10.18;2.00;;;6.90;99.90;;;;;;7292559;32;20100;-62
2022/12/27 11:24:27;;;;;;;5.30;1.62;;;6.90;99.90;;;;;;7283827;32;20404;-62
2022/12/27 11:28:51;;;;;;;14.57;1.70;;;6.90;99.90;;;;;;7274686;32;20104;-62
2022/12/27 11:32:53;;;;;;;8.52;2.20;;;6.90;99.90;;;;;;7291172;32;20204;-64
2022/12/27 11:37:12;;;;;;;10.90;2.08;;;7.00;99.90;;;;;;7292320;32;20100;-62
2022/12/27 11:41:33;;;;;;;7.87;1.55;;;7.00;99.90;;;;;;7293774;32;20199;-62
2022/12/27 11:45:43;;;;;;;7.68;1.60;;;7.10;99.90;;;;;;7291702;32;20868;-62
2022/12/27 11:49:55;;;;;;;7.90;1.85;;;7.30;99.90;;;;;;7293950;32;20465;-61
2022/12/27 11:54:04;;;;;;;10.20;2.08;;;7.60;99.90;;;;;;7293597;32;20126;-61
2022/12/27 11:58:30;;;;;;;8.63;1.70;;;7.80;99.90;;;;;;7294488;32;20104;-61
2022/12/27 12:02:52;;;;;;;8.18;2.00;;;8.00;99.90;;;;;;7287845;32;20286;-61
2022/12/27 12:07:02;;;;;;;5.62;1.75;;;7.90;99.90;;;;;;7283569;32;20363;-61
2022/12/27 12:11:30;;;;;;;4.80;1.50;;;7.80;99.90;;;;;;7288070;32;20261;-61
2022/12/27 12:16:01;;;;;;;;;;;7.80;99.90;;;;;;7286855;32;20454;-62
2022/12/27 12:20:26;;;;;;;9.93;2.17;;;7.70;99.90;;;;;;7272776;32;20050;-62
2022/12/27 12:24:49;;;;;;;9.15;2.03;;;7.60;99.90;;;;;;7298209;32;20127;-62
2022/12/27 12:29:35;;;;;;;10.75;1.52;;;7.50;99.90;;;;;;7293046;32;20103;-62
2022/12/27 12:34:01;;;;;;;6.20;2.28;;;7.50;99.90;;;;;;7260937;32;20100;-61
2022/12/27 12:38:12;;;;;;;5.10;1.65;;;7.50;99.90;;;;;;7298028;32;20768;-61
2022/12/27 12:42:33;;;;;;;5.60;1.58;;;7.50;99.90;;;;;;7300347;32;20135;-61
2022/12/27 12:46:48;;;;;;;9.65;1.90;;;7.60;99.90;;;;;;7297712;32;20687;-61
2022/12/27 12:50:56;;;;;;;9.00;1.50;;;7.50;99.90;;;;;;7301695;32;20167;-61
2022/12/27 12:54:57;;;;;;;7.75;2.03;;;7.50;99.90;;;;;;7304184;32;20145;-61
2022/12/27 12:59:08;;;;;;;7.62;1.62;;;7.50;99.90;;;;;;7300877;32;20136;-62
2022/12/27 13:03:35;;;;;;;5.30;1.60;;;7.50;99.90;;;;;;7299230;32;20135;-62
2022/12/27 13:07:54;;;;;;;8.63;1.50;;;7.60;99.90;;;;;;7296916;32;20190;-63
2022/12/27 13:12:15;;;;;;;7.53;1.60;;;7.50;99.90;;;;;;7300487;32;20848;-62
2022/12/27 13:16:41;;;;;;;6.95;1.50;;;7.60;99.90;;;;;;7297814;32;20175;-62
2022/12/27 13:21:01;;;;;;;4.40;1.50;;;7.50;99.90;;;;;;7301567;32;20688;-61
2022/12/27 13:25:12;;;;;;;6.97;1.58;;;7.60;99.90;;;;;;7302480;32;20150;-61
2022/12/27 13:29:48;;;;;;;10.05;2.05;;;7.50;99.90;;;;;;7297476;32;20179;-62
2022/12/27 13:34:02;;;;;;;10.68;1.90;;;7.50;99.90;;;;;;7293617;32;20138;-61
2022/12/27 13:38:18;;;;;;;10.23;2.05;;;7.50;99.90;;;;;;7291385;32;20627;-61
2022/12/27 13:42:34;;;;;;;7.95;1.70;;;7.60;99.90;;;;;;7292921;32;20224;-61
2022/12/27 13:46:46;;;;;;;10.00;1.40;;;7.50;99.90;;;;;;7293439;32;20178;-61
2022/12/27 13:51:02;;;;;;;5.53;1.77;;;7.50;99.90;;;;;;7282528;32;20122;-61
2022/12/27 13:55:40;;;;;;;8.50;2.25;;;7.60;99.90;;;;;;7294100;32;20207;-60
2022/12/27 13:59:58;;;;;;;12.95;2.67;;;7.60;99.90;;;;;;7291989;32;20142;-61
2022/12/27 14:04:29;;;;;;;7.93;2.20;;;7.60;99.90;;;;;;7276224;32;20495;-60
2022/12/27 14:08:59;;;;;;;7.15;1.62;;;7.60;99.90;;;;;;7267522;32;20184;-61
2022/12/27 14:13:05;;;;;;;8.65;1.60;;;7.50;99.90;;;;;;7296057;32;20122;-62
2022/12/27 14:17:24;;;;;;;9.45;1.67;;;7.50;99.90;;;;;;7289715;32;20246;-61
2022/12/27 14:21:47;;;;;;;6.32;1.67;;;7.40;99.90;;;;;;7287351;32;20230;-62
2022/12/27 14:26:18;;;;;;;6.87;1.52;;;7.20;99.90;;;;;;7294952;32;20221;-62
2022/12/27 14:30:54;;;;;;;8.38;1.70;;;7.20;99.90;;;;;;7269712;32;20122;-61
2022/12/27 14:35:17;;;;;;;8.18;1.70;;;7.20;99.90;;;;;;7289649;32;20223;-61
2022/12/27 14:39:52;;;;;;;6.70;1.73;;;7.20;99.90;;;;;;7291237;32;20238;-61
2022/12/27 14:44:10;;;;;;;8.13;1.85;;;7.30;99.90;;;;;;7289173;32;20649;-61
2022/12/27 14:48:27;;;;;;;5.53;1.35;;;7.30;99.90;;;;;;7290299;32;20176;-61
2022/12/27 14:52:41;;;;;;;7.40;2.20;;;7.30;99.90;;;;;;7292014;32;20116;-61
2022/12/27 14:57:20;;;;;;;7.65;1.60;;;7.20;99.90;;;;;;7293143;32;20123;-62
2022/12/27 15:01:56;;;;;;;9.48;1.80;;;7.10;99.90;;;;;;7285630;32;20278;-62
2022/12/27 15:06:26;;;;;;;7.03;1.50;;;7.10;99.90;;;;;;7290451;32;20130;-61
2022/12/27 15:10:52;;;;;;;3.90;1.30;;;7.00;99.90;;;;;;7293093;32;20119;-61
2022/12/27 15:15:21;;;;;;;12.73;1.60;;;6.90;99.90;;;;;;7290199;32;20555;-62
2022/12/27 15:20:01;;;;;;;4.75;1.50;;;6.80;99.90;;;;;;7295935;32;20183;-61
2022/12/27 15:24:22;;;;;;;6.68;2.00;;;6.70;99.90;;;;;;7285170;32;20119;-60
2022/12/27 15:28:48;;;;;;;6.70;1.55;;;7.10;99.90;;;;;;7289948;32;20256;-61
2022/12/27 15:33:15;;;;;;;14.20;1.62;;;7.00;99.90;;;;;;7287539;32;20150;-62
2022/12/27 15:37:45;;;;;;;7.20;1.40;;;6.80;99.90;;;;;;7287171;32;20108;-64
2022/12/27 15:42:24;;;;;;;6.68;1.50;;;6.80;99.90;;;;;;7287971;32;20107;-62
2022/12/27 15:46:38;;;;;;;9.50;2.33;;;6.60;99.90;;;;;;7265110;32;20152;-62
2022/12/27 15:50:50;;;;;;;7.68;1.80;;;6.50;99.90;;;;;;7292810;32;20092;-63
2022/12/27 15:55:21;;;;;;;6.90;1.73;;;6.60;99.90;;;;;;7294438;32;20539;-63
2022/12/27 15:59:52;;;;;;;4.87;1.33;;;6.60;99.90;;;;;;7293366;32;20714;-64
2022/12/27 16:03:57;;;;;;;7.68;1.20;;;6.70;99.90;;;;;;7289882;32;20187;-62
2022/12/27 16:07:58;;;;;;;7.60;1.45;;;6.70;99.90;;;;;;7292119;32;20133;-63
2022/12/27 16:12:08;;;;;;;6.22;1.45;;;6.70;99.90;;;;;;7294237;32;20569;-61
2022/12/27 16:16:36;;;;;;;6.32;1.65;;;6.70;99.90;;;;;;7288405;32;20165;-62
2022/12/27 16:20:38;;;;;;;8.27;1.60;;;6.80;99.90;;;;;;7282882;32;20743;-62
2022/12/27 16:24:41;;;;;;;6.85;1.40;;;6.70;99.90;;;;;;7293841;32;20132;-62
2022/12/27 16:28:58;;;;;;;6.32;1.50;;;6.60;99.90;;;;;;7293320;32;20253;-64
2022/12/27 16:33:00;;;;;;;7.62;1.60;;;6.70;99.90;;;;;;7284647;32;20116;-65
2022/12/27 16:37:02;;;;;;;10.02;1.70;;;6.80;99.90;;;;;;7291388;32;20104;-65
2022/12/27 16:41:51;;;;;;;12.60;1.45;;;6.70;99.90;;;;;;7293842;32;20127;-63
2022/12/27 16:46:19;;;;;;;7.57;1.85;;;6.70;99.90;;;;;;7286814;32;20179;-64
2022/12/27 16:50:51;;;;;;;7.35;1.30;;;6.60;99.90;;;;;;7291881;32;20134;-62
2022/12/27 16:55:35;;;;;;;5.70;1.25;;;6.70;99.90;;;;;;7289391;32;20554;-63
2022/12/27 16:59:59;;;;;;;3.25;1.20;;;6.50;99.90;;;;;;7285808;32;20396;-61
2022/12/27 17:04:01;;;;;;;7.20;1.67;;;6.50;99.90;;;;;;7295918;32;20123;-62
2022/12/27 17:08:13;;;;;;;6.22;1.62;;;6.50;99.90;;;;;;7287458;32;20341;-60
2022/12/27 17:12:17;;;;;;;6.57;1.20;;;6.40;99.90;;;;;;7292761;32;20187;-62
2022/12/27 17:16:40;;;;;;;9.00;1.85;;;6.40;99.90;;;;;;7289994;32;20142;-59
2022/12/27 17:20:43;;;;;;;4.25;1.33;;;6.30;99.90;;;;;;7288376;32;20309;-61
2022/12/27 17:24:46;;;;;;;4.60;1.60;;;6.30;99.90;;;;;;7293025;32;20108;-61
2022/12/27 17:29:42;;;;;;;10.88;1.98;;;6.30;99.90;;;;;;7292991;32;20103;-59
2022/12/27 17:33:57;;;;;;;5.65;1.37;;;6.20;99.90;;;;;;7212771;32;20096;-60
2022/12/27 17:38:14;;;;;;;5.07;1.30;;;6.10;99.90;;;;;;7288580;32;20196;-62
2022/12/27 17:47:14;;;;;;;5.37;1.35;;;6.00;99.90;;;;;;7283476;32;20453;-60
2022/12/27 17:51:23;;;;;;;7.30;1.60;;;6.00;99.90;;;;;;7295350;32;20128;-60
2022/12/27 17:59:49;;;;;;;6.55;1.90;;;5.90;99.90;;;;;;7288522;32;20122;-60
2022/12/27 18:03:51;;;;;;;9.70;2.30;;;5.80;99.90;;;;;;7283999;32;20188;-60
2022/12/27 18:08:27;;;;;;;7.57;2.00;;;5.70;99.90;;;;;;7240285;32;20107;-63
2022/12/27 18:12:36;;;;;;;4.37;1.58;;;5.60;99.90;;;;;;7282567;32;20163;-60
2022/12/27 18:16:39;;;;;;;6.18;2.00;;;5.50;99.90;;;;;;7269573;32;20104;-60
2022/12/27 18:20:41;;;;;;;8.98;1.77;;;5.50;99.90;;;;;;7279250;32;20626;-60
2022/12/27 18:24:43;;;;;;;7.85;1.67;;;5.60;99.90;;;;;;7285284;32;20282;-61
2022/12/27 18:28:46;;;;;;;7.50;1.70;;;5.50;99.90;;;;;;7282484;32;20097;-60
2022/12/27 18:32:48;;;;;;;5.20;1.55;;;5.50;99.90;;;;;;7277850;32;20205;-61
2022/12/27 18:36:58;;;;;;;7.80;1.67;;;5.50;99.90;;;;;;7278813;32;20218;-60
2022/12/27 18:41:07;;;;;;;6.85;1.83;;;5.50;99.90;;;;;;7280924;32;20103;-60
2022/12/27 18:45:21;;;;;;;8.13;1.52;;;5.50;99.90;;;;;;7283294;32;20126;-59
2022/12/27 18:49:25;;;;;;;7.22;2.10;;;5.50;99.90;;;;;;7287223;32;20237;-59
2022/12/27 18:53:36;;;;;;;4.93;2.17;;;5.50;99.90;;;;;;7281579;32;20612;-60
2022/12/27 18:57:38;;;;;;;7.68;1.65;;;5.40;99.90;;;;;;7279885;32;20553;-60
2022/12/27 19:01:45;;;;;;;6.22;1.50;;;5.40;99.90;;;;;;7282857;32;20720;-60
2022/12/27 19:06:11;;;;;;;5.62;1.60;;;5.40;99.90;;;;;;7279839;32;20100;-60
2022/12/27 19:10:18;;;;;;;9.68;1.65;;;5.40;99.90;;;;;;7281073;32;20119;-60
2022/12/27 19:14:21;;;;;;;6.62;1.80;;;5.40;99.90;;;;;;7270932;32;20191;-61
2022/12/27 19:18:43;;;;;;;6.03;1.70;;;5.40;99.90;;;;;;7285204;32;20628;-57
2022/12/27 19:22:45;;;;;;;5.05;1.48;;;5.30;99.90;;;;;;7279699;32;20179;-60
2022/12/27 19:26:47;;;;;;;5.95;1.90;;;5.30;99.90;;;;;;7286900;32;20199;-60
2022/12/27 19:31:05;;;;;;;10.27;1.80;;;5.30;99.90;;;;;;7281353;32;20203;-58
2022/12/27 19:35:12;;;;;;;8.35;1.70;;;5.30;99.90;;;;;;7276364;32;21883;-59
2022/12/27 19:39:28;;;;;;;8.02;1.83;;;5.50;99.90;;;;;;7289404;32;20103;-61
2022/12/27 19:43:37;;;;;;;7.87;1.85;;;5.40;99.90;;;;;;7292524;32;20195;-61
2022/12/27 19:47:38;;;;;;;7.35;1.70;;;5.20;99.90;;;;;;7287168;32;20099;-61
2022/12/27 19:51:41;;;;;;;6.07;1.55;;;5.10;99.90;;;;;;7293789;32;20246;-62
2022/12/27 19:55:43;;;;;;;4.75;1.62;;;5.10;99.90;;;;;;7291108;32;20096;-62
2022/12/27 19:59:45;;;;;;;4.80;1.58;;;5.00;99.90;;;;;;7291669;32;20127;-62
2022/12/27 20:03:47;;;;;;;10.32;1.95;;;5.00;99.90;;;;;;7288410;32;20366;-61
2022/12/27 20:07:48;;;;;;;4.18;2.00;;;4.90;99.90;;;;;;7290652;32;20540;-60
2022/12/27 20:11:50;;;;;;;5.50;1.20;;;4.90;99.90;;;;;;7294150;32;20732;-61
2022/12/27 20:15:53;;;;;;;4.78;1.55;;;4.90;99.90;;;;;;7288146;32;20108;-62
2022/12/27 20:19:55;;;;;;;7.80;1.87;;;5.00;99.90;;;;;;7290016;32;20120;-62
2022/12/27 20:23:57;;;;;;;7.12;1.83;;;4.80;99.90;;;;;;7289810;32;20222;-62
2022/12/27 20:27:58;;;;;;;9.40;2.12;;;4.70;99.90;;;;;;7278021;32;20272;-60
2022/12/27 20:32:00;;;;;;;6.75;1.85;;;4.70;99.90;;;;;;7292845;32;20561;-63
2022/12/27 20:36:03;;;;;;;12.52;1.98;;;4.80;99.90;;;;;;7299274;32;20243;-63
2022/12/27 20:40:06;;;;;;;7.43;1.80;;;4.70;99.90;;;;;;7283301;32;20242;-61
2022/12/27 20:44:08;;;;;;;9.43;2.08;;;4.70;99.90;;;;;;7295758;32;20137;-63
2022/12/27 20:48:10;;;;;;;8.38;1.65;;;4.60;99.90;;;;;;7299944;32;20108;-64
2022/12/27 20:52:11;;;;;;;12.02;2.42;;;4.70;99.90;;;;;;7298334;32;20170;-62
2022/12/27 20:56:14;;;;;;;6.40;1.75;;;4.60;99.90;;;;;;7297393;32;20218;-65
2022/12/27 21:00:16;;;;;;;7.60;1.80;;;4.60;99.90;;;;;;7293353;32;20530;-65
2022/12/27 21:04:18;;;;;;;6.25;1.92;;;4.60;99.90;;;;;;7290229;32;20108;-63
2022/12/27 21:08:19;;;;;;;7.35;2.10;;;4.60;99.90;;;;;;7294604;32;20108;-64
2022/12/27 21:12:21;;;;;;;11.63;2.75;;;4.50;99.90;;;;;;7296087;32;20615;-64
2022/12/27 21:16:26;;;;;;;9.98;3.03;;;4.50;99.90;;;;;;7289630;32;20213;-62
2022/12/27 21:20:28;;;;;;;8.52;2.92;;;4.50;99.90;;;;;;7294652;32;20800;-61
2022/12/27 21:24:29;;;;;;;8.98;2.87;;;4.40;99.90;;;;;;7296380;32;20122;-62
2022/12/27 21:28:31;;;;;;;5.93;2.47;;;4.40;99.90;;;;;;7297944;32;20132;-60
2022/12/27 21:32:33;;;;;;;6.12;2.42;;;4.30;99.90;;;;;;7295158;32;20222;-61
2022/12/27 21:36:37;;;;;;;6.50;2.10;;;4.30;99.90;;;;;;7288345;32;20195;-61
2022/12/27 21:40:38;;;;;;;5.70;2.42;;;4.50;99.90;;;;;;7298130;32;20112;-61
2022/12/27 21:44:40;;;;;;;7.32;1.98;;;4.40;99.90;;;;;;7297875;32;20138;-60
2022/12/27 21:48:42;;;;;;;7.90;2.12;;;4.50;99.90;;;;;;7294574;32;20173;-61
2022/12/27 21:52:44;;;;;;;10.57;2.90;;;4.50;99.90;;;;;;7294076;32;20119;-61
2022/12/27 21:56:45;;;;;;;5.70;2.30;;;4.60;99.90;;;;;;7295156;32;20769;-61
2022/12/27 22:00:47;;;;;;;6.28;2.00;;;4.60;99.90;;;;;;7282260;32;20126;-61
2022/12/27 22:04:49;;;;;;;7.07;2.00;;;4.60;99.90;;;;;;7296304;32;20263;-61
2022/12/27 22:08:54;;;;;;;8.48;2.12;;;4.60;99.90;;;;;;7292739;32;20179;-61
2022/12/27 22:12:56;;;;;;;5.82;1.90;;;4.70;99.90;;;;;;7285827;32;20220;-60
2022/12/27 22:16:59;;;;;;;8.55;2.03;;;4.70;99.90;;;;;;7286866;32;20218;-61
2022/12/27 22:21:03;;;;;;;8.38;2.08;;;4.70;99.90;;;;;;7292954;32;20216;-59
2022/12/27 22:25:06;;;;;;;9.40;1.80;;;4.70;99.90;;;;;;7298715;32;20214;-59
2022/12/27 22:29:08;;;;;;;8.55;2.25;;;4.70;99.90;;;;;;7295131;32;20250;-59
2022/12/27 22:33:09;;;;;;;5.90;1.90;;;4.70;99.90;;;;;;7298631;32;20134;-59
2022/12/27 22:37:11;;;;;;;7.95;2.00;;;4.70;99.90;;;;;;7296420;32;20248;-59
2022/12/27 22:41:24;;;;;;;11.75;2.20;;;4.70;99.90;;;;;;7297387;32;20195;-59
2022/12/27 22:45:26;;;;;;;8.30;1.90;;;4.70;99.90;;;;;;7295214;32;20246;-60
2022/12/27 22:49:28;;;;;;;12.77;2.30;;;4.70;99.90;;;;;;7287528;32;20717;-59
2022/12/27 22:53:30;;;;;;;7.47;2.17;;;4.70;99.90;;;;;;7298989;32;20708;-59
2022/12/27 22:57:31;;;;;;;10.63;2.12;;;4.60;99.90;;;;;;7293728;32;20159;-59
2022/12/27 23:01:34;;;;;;;8.18;2.05;;;4.60;99.90;;;;;;7297649;32;20111;-60
2022/12/27 23:05:35;;;;;;;8.80;2.03;;;4.60;99.90;;;;;;7292054;32;20338;-61
2022/12/27 23:09:37;;;;;;;5.43;1.73;;;4.70;99.90;;;;;;7292654;32;20226;-59
2022/12/27 23:13:45;;;;;;;5.30;1.48;;;4.60;99.90;;;;;;7294954;32;20244;-59
2022/12/27 23:17:47;;;;;;;6.50;1.90;;;4.60;99.90;;;;;;7296450;32;20644;-59
2022/12/27 23:21:48;;;;;;;5.53;1.83;;;4.70;99.90;;;;;;7295687;32;20112;-59
2022/12/27 23:25:51;;;;;;;6.00;1.67;;;4.80;99.90;;;;;;7294953;32;20570;-59
2022/12/27 23:29:54;;;;;;;5.28;1.55;;;4.80;99.90;;;;;;7296902;32;20151;-60
2022/12/27 23:33:55;;;;;;;6.18;1.80;;;4.90;99.90;;;;;;7293448;32;20134;-60
2022/12/27 23:37:57;;;;;;;3.50;1.80;;;4.90;99.90;;;;;;7292636;32;20131;-59
2022/12/27 23:41:59;;;;;;;8.55;1.83;;;4.80;99.90;;;;;;7299363;32;20165;-59
2022/12/27 23:46:11;;;;;;;6.53;1.40;;;5.00;99.90;;;;;;7279159;32;20158;-59
2022/12/27 23:50:13;;;;;;;7.55;2.10;;;5.00;99.90;;;;;;7289377;32;20146;-59
2022/12/27 23:54:21;;;;;;;9.75;2.00;;;5.00;99.90;;;;;;7300311;32;20162;-59
2022/12/27 23:58:23;;;;;;;9.73;1.95;;;5.10;99.90;;;;;;7295649;32;20122;-60
